Time;durP1;ratioP1;P1;durP2;ratioP2;P2;SDS_P1;SDS_P2;PMS_P1;PMS_P2;Temp;Humidity;BMP_temperature;BMP_pressure;BME280_temperature;BME280_humidity;BME280_pressure;Samples;Min_cycle;Max_cycle;Signal;HPM_P1;HPM_P2
2023/10/25 00:01:39;0.00;0.00;0.62;0.00;0.00;0.62;3.00;2.10;;;24.10;29.50;;;;;;2260555;61;20451;-63
2023/10/25 00:04:25;0.00;0.00;0.62;0.00;0.00;0.62;2.97;2.33;;;24.10;29.50;;;;;;2260476;61;20962;-64
2023/10/25 00:07:10;0.00;0.00;0.62;0.00;0.00;0.62;2.90;2.40;;;24.10;29.50;;;;;;2260559;61;20372;-61
2023/10/25 00:09:55;0.00;0.00;0.62;0.00;0.00;0.62;2.90;2.30;;;24.10;29.50;;;;;;2256913;61;20817;-61
2023/10/25 00:12:40;0.00;0.00;0.62;0.00;0.00;0.62;3.30;2.40;;;24.10;29.50;;;;;;2260514;61;20855;-63
2023/10/25 00:15:25;0.00;0.00;0.62;0.00;0.00;0.62;3.40;3.00;;;24.10;29.50;;;;;;2260364;61;20781;-63
2023/10/25 00:18:09;0.00;0.00;0.62;0.00;0.00;0.62;2.87;2.27;;;24.10;29.50;;;;;;2260088;61;20411;-63
2023/10/25 00:20:56;0.00;0.00;0.62;0.00;0.00;0.62;3.00;2.10;;;24.10;29.50;;;;;;2260424;61;20536;-63
2023/10/25 00:23:40;0.00;0.00;0.62;0.00;0.00;0.62;9.30;2.10;;;24.10;29.50;;;;;;2260498;61;20396;-63
2023/10/25 00:26:25;0.00;0.00;0.62;0.00;0.00;0.62;2.93;2.10;;;24.10;29.50;;;;;;2260406;61;20761;-63
2023/10/25 00:29:10;0.00;0.00;0.62;0.00;0.00;0.62;2.60;2.13;;;24.10;29.50;;;;;;2259946;61;20365;-63
2023/10/25 00:31:55;0.00;0.00;0.62;0.00;0.00;0.62;2.80;2.37;;;24.10;29.50;;;;;;2260244;61;20936;-63
2023/10/25 00:34:39;0.00;0.00;0.62;0.00;0.00;0.62;3.20;2.30;;;24.00;29.40;;;;;;2254278;61;20380;-63
2023/10/25 00:37:25;0.00;0.00;0.62;0.00;0.00;0.62;4.23;2.77;;;24.00;29.40;;;;;;2260498;61;20447;-63
2023/10/25 00:40:11;0.00;0.00;0.62;0.00;0.00;0.62;2.97;2.30;;;24.00;29.40;;;;;;2260077;61;20774;-64
2023/10/25 00:43:13;0.00;0.00;0.62;0.00;0.00;0.62;3.50;2.07;;;24.00;29.40;;;;;;2257074;61;20385;-63
2023/10/25 00:46:19;0.00;0.00;0.62;0.00;0.00;0.62;2.60;2.00;;;24.10;29.50;;;;;;2260455;61;20364;-65
2023/10/25 00:49:06;0.00;0.00;0.62;0.00;0.00;0.62;2.73;2.00;;;24.00;29.40;;;;;;2259905;61;20963;-64
2023/10/25 00:51:50;0.00;0.00;0.62;0.00;0.00;0.62;2.70;2.20;;;24.00;29.40;;;;;;2257075;61;20392;-63
2023/10/25 00:57:13;0.00;0.00;0.62;0.00;0.00;0.62;2.63;2.27;;;24.00;29.40;;;;;;2253175;61;20493;-63
2023/10/25 00:59:59;0.00;0.00;0.62;0.00;0.00;0.62;2.90;2.17;;;24.00;29.40;;;;;;2252058;61;20375;-63
2023/10/25 01:02:44;0.00;0.00;0.62;0.00;0.00;0.62;2.90;2.13;;;24.00;29.40;;;;;;2252284;61;20416;-63
2023/10/25 01:05:29;0.00;0.00;0.62;0.00;0.00;0.62;2.10;1.53;;;24.00;29.40;;;;;;2246268;61;20363;-63
2023/10/25 01:08:18;0.00;0.00;0.62;0.00;0.00;0.62;2.70;2.30;;;24.00;29.40;;;;;;2251762;61;20441;-63
2023/10/25 01:11:04;0.00;0.00;0.62;0.00;0.00;0.62;3.13;1.97;;;24.00;29.40;;;;;;2252199;61;20900;-63
2023/10/25 01:13:50;0.00;0.00;0.62;0.00;0.00;0.62;2.43;2.00;;;24.00;29.40;;;;;;2249077;61;20445;-63
2023/10/25 01:16:34;0.00;0.00;0.62;0.00;0.00;0.62;2.50;1.87;;;24.00;29.40;;;;;;2252106;61;20778;-63
2023/10/25 01:19:20;0.00;0.00;0.62;0.00;0.00;0.62;2.60;2.03;;;24.00;29.40;;;;;;2248594;61;20784;-63
2023/10/25 01:22:04;0.00;0.00;0.62;0.00;0.00;0.62;2.30;1.80;;;24.00;29.40;;;;;;2252193;61;20370;-63
2023/10/25 01:24:50;0.00;0.00;0.62;0.00;0.00;0.62;3.50;2.50;;;24.00;29.40;;;;;;2251764;61;20413;-63
2023/10/25 01:27:35;0.00;0.00;0.62;0.00;0.00;0.62;2.90;1.90;;;24.00;29.40;;;;;;2252131;61;20409;-63
2023/10/25 01:30:20;0.00;0.00;0.62;0.00;0.00;0.62;2.97;2.07;;;24.00;29.40;;;;;;2252019;61;20382;-63
2023/10/25 01:33:05;0.00;0.00;0.62;0.00;0.00;0.62;2.77;2.00;;;24.00;29.40;;;;;;2252133;61;20391;-63
2023/10/25 01:35:51;0.00;0.00;0.62;0.00;0.00;0.62;2.40;1.77;;;24.00;29.40;;;;;;2251889;61;20397;-63
2023/10/25 01:38:36;0.00;0.00;0.62;0.00;0.00;0.62;2.87;2.00;;;24.00;29.40;;;;;;2248868;61;20370;-63
2023/10/25 01:41:22;0.00;0.00;0.62;0.00;0.00;0.62;2.33;1.83;;;24.00;29.40;;;;;;2252314;61;20366;-62
2023/10/25 01:44:07;0.00;0.00;0.62;0.00;0.00;0.62;2.57;2.00;;;24.00;29.40;;;;;;2252274;61;20410;-64
2023/10/25 01:46:51;0.00;0.00;0.62;0.00;0.00;0.62;2.23;1.70;;;24.00;29.40;;;;;;2252310;61;20414;-63
2023/10/25 01:49:36;0.00;0.00;0.62;0.00;0.00;0.62;2.00;1.50;;;24.00;29.40;;;;;;2516126;53;20371;-63
2023/10/25 01:52:21;0.00;0.00;0.62;0.00;0.00;0.62;2.43;1.63;;;23.90;29.30;;;;;;2248954;61;20419;-63
2023/10/25 01:55:07;0.00;0.00;0.62;0.00;0.00;0.62;2.43;1.87;;;23.90;29.40;;;;;;2245522;61;20438;-63
2023/10/25 01:57:53;0.00;0.00;0.62;0.00;0.00;0.62;2.80;2.00;;;23.90;29.40;;;;;;2248579;61;20371;-63
2023/10/25 02:00:39;0.00;0.00;0.62;0.00;0.00;0.62;2.37;1.50;;;23.90;29.30;;;;;;2245736;61;20364;-63
2023/10/25 02:03:25;0.00;0.00;0.62;0.00;0.00;0.62;2.40;1.60;;;23.90;29.30;;;;;;2340144;40;20380;-62
2023/10/25 02:06:12;0.00;0.00;0.62;0.00;0.00;0.62;2.50;1.93;;;23.90;29.30;;;;;;2260294;61;20424;-62
2023/10/25 02:08:57;0.00;0.00;0.62;0.00;0.00;0.62;2.30;1.53;;;23.90;29.30;;;;;;2256561;61;20917;-63
2023/10/25 02:11:41;0.00;0.00;0.62;0.00;0.00;0.62;2.17;1.50;;;23.90;29.30;;;;;;2256826;61;20409;-62
2023/10/25 02:14:27;0.00;0.00;0.62;0.00;0.00;0.62;1.97;1.70;;;23.90;29.30;;;;;;2259016;61;20918;-66
2023/10/25 02:17:12;0.00;0.00;0.62;0.00;0.00;0.62;2.03;1.57;;;23.90;29.40;;;;;;2256440;61;20393;-62
2023/10/25 02:19:58;0.00;0.00;0.62;0.00;0.00;0.62;3.07;1.80;;;23.90;29.30;;;;;;2256492;61;20404;-62
2023/10/25 02:22:43;0.00;0.00;0.62;0.00;0.00;0.62;2.80;2.07;;;23.90;29.30;;;;;;2256515;61;20378;-63
2023/10/25 02:25:27;0.00;0.00;0.62;0.00;0.00;0.62;2.00;1.50;;;23.90;29.30;;;;;;2256841;61;20381;-62
2023/10/25 02:28:12;0.00;0.00;0.62;0.00;0.00;0.62;2.30;1.53;;;23.90;29.30;;;;;;2255864;61;20417;-64
2023/10/25 02:30:58;0.00;0.00;0.62;0.00;0.00;0.62;3.27;1.50;;;23.90;29.30;;;;;;2256865;61;20370;-62
2023/10/25 02:33:43;0.00;0.00;0.62;0.00;0.00;0.62;2.10;1.40;;;23.90;29.40;;;;;;2256083;61;20436;-62
2023/10/25 02:36:29;0.00;0.00;0.62;0.00;0.00;0.62;2.10;1.43;;;23.90;29.30;;;;;;2256662;61;20389;-62
2023/10/25 02:39:13;0.00;0.00;0.62;0.00;0.00;0.62;2.30;1.67;;;23.90;29.40;;;;;;2256328;61;20357;-62
2023/10/25 02:41:59;0.00;0.00;0.62;0.00;0.00;0.62;2.23;1.87;;;23.90;29.30;;;;;;2256147;61;20805;-62
2023/10/25 02:44:44;0.00;0.00;0.62;0.00;0.00;0.62;2.10;1.50;;;23.90;29.30;;;;;;2256792;61;20409;-62
2023/10/25 02:47:30;0.00;0.00;0.62;0.00;0.00;0.62;2.47;1.93;;;23.80;29.30;;;;;;2256774;61;20902;-62
2023/10/25 02:50:15;0.00;0.00;0.62;0.00;0.00;0.62;2.00;1.43;;;23.80;29.30;;;;;;2256415;61;20362;-61
2023/10/25 02:53:00;0.00;0.00;0.62;0.00;0.00;0.62;2.57;1.73;;;23.90;29.30;;;;;;2256743;61;20389;-62
2023/10/25 02:55:47;0.00;0.00;0.62;0.00;0.00;0.62;2.57;1.80;;;23.80;29.30;;;;;;2255900;61;20394;-62
2023/10/25 02:58:32;0.00;0.00;0.62;0.00;0.00;0.62;2.47;1.50;;;23.80;29.30;;;;;;2256377;61;20374;-61
2023/10/25 03:01:22;0.00;0.00;0.62;0.00;0.00;0.62;2.53;1.90;;;23.80;29.30;;;;;;2256572;61;20846;-62
2023/10/25 03:04:08;0.00;0.00;0.62;0.00;0.00;0.62;2.57;1.83;;;23.80;29.30;;;;;;2255915;61;20529;-67
2023/10/25 03:06:53;0.00;0.00;0.62;0.00;0.00;0.62;2.47;1.67;;;23.80;29.30;;;;;;2256512;61;20412;-62
2023/10/25 03:09:37;0.00;0.00;0.62;0.00;0.00;0.62;2.03;1.63;;;23.80;29.30;;;;;;2256256;61;20366;-64
2023/10/25 03:12:22;0.00;0.00;0.62;0.00;0.00;0.62;2.43;1.40;;;23.80;29.30;;;;;;2256023;61;20542;-65
2023/10/25 03:15:07;0.00;0.00;0.62;0.00;0.00;0.62;2.50;1.90;;;23.80;29.30;;;;;;2256603;61;20448;-62
2023/10/25 03:17:52;0.00;0.00;0.62;0.00;0.00;0.62;2.23;1.60;;;23.80;29.30;;;;;;2256109;61;20370;-61
2023/10/25 03:20:39;0.00;0.00;0.62;0.00;0.00;0.62;2.77;1.83;;;23.80;29.30;;;;;;2256185;61;20361;-62
2023/10/25 03:23:23;0.00;0.00;0.62;0.00;0.00;0.62;1.97;1.50;;;23.80;29.30;;;;;;2255946;61;20448;-62
2023/10/25 03:26:09;0.00;0.00;0.62;0.00;0.00;0.62;2.13;1.50;;;23.80;29.30;;;;;;2256117;61;20413;-62
2023/10/25 03:28:55;0.00;0.00;0.62;0.00;0.00;0.62;2.40;1.30;;;23.80;29.30;;;;;;2255843;61;20452;-62
2023/10/25 03:31:40;0.00;0.00;0.62;0.00;0.00;0.62;2.03;1.70;;;23.80;29.30;;;;;;2256326;61;20417;-62
2023/10/25 03:34:25;0.00;0.00;0.62;0.00;0.00;0.62;2.50;1.60;;;23.80;29.30;;;;;;2255846;61;20385;-62
2023/10/25 03:37:11;0.00;0.00;0.62;0.00;0.00;0.62;2.30;1.57;;;23.80;29.30;;;;;;2256672;61;20370;-63
2023/10/25 03:39:55;0.00;0.00;0.62;0.00;0.00;0.62;2.17;1.57;;;23.80;29.30;;;;;;2256097;61;20370;-65
2023/10/25 03:42:40;0.00;0.00;0.62;0.00;0.00;0.62;1.93;1.30;;;23.80;29.30;;;;;;2256732;61;20806;-62
2023/10/25 03:45:25;0.00;0.00;0.62;0.00;0.00;0.62;2.37;1.50;;;23.80;29.30;;;;;;2256627;61;20994;-62
2023/10/25 03:48:10;0.00;0.00;0.62;0.00;0.00;0.62;2.40;1.50;;;23.80;29.30;;;;;;2255590;61;20373;-62
2023/10/25 03:50:54;0.00;0.00;0.62;0.00;0.00;0.62;2.73;1.80;;;23.80;29.30;;;;;;2256469;61;20929;-65
2023/10/25 03:53:40;0.00;0.00;0.62;0.00;0.00;0.62;2.13;1.43;;;23.80;29.30;;;;;;2256522;61;20385;-62
2023/10/25 03:56:25;0.00;0.00;0.62;0.00;0.00;0.62;2.13;1.50;;;23.80;29.30;;;;;;2255889;61;20420;-62
2023/10/25 03:59:11;0.00;0.00;0.62;0.00;0.00;0.62;1.93;1.43;;;23.70;29.20;;;;;;2258485;61;20382;-62
2023/10/25 04:01:56;0.00;0.00;0.62;0.00;0.00;0.62;2.33;1.53;;;23.70;29.20;;;;;;2256074;61;20425;-62
2023/10/25 04:04:40;0.00;0.00;0.62;0.00;0.00;0.62;2.70;1.77;;;23.70;29.20;;;;;;2256585;61;20773;-62
2023/10/25 04:07:25;0.00;0.00;0.62;0.00;0.00;0.62;2.10;1.33;;;23.70;29.20;;;;;;2256439;61;20370;-62
2023/10/25 04:10:11;0.00;0.00;0.62;0.00;0.00;0.62;2.37;1.83;;;23.70;29.20;;;;;;2256121;61;20769;-62
2023/10/25 04:12:56;0.00;0.00;0.62;0.00;0.00;0.62;2.30;1.50;;;23.70;29.20;;;;;;2256588;61;20439;-62
2023/10/25 04:15:40;0.00;0.00;0.62;0.00;0.00;0.62;2.10;1.50;;;23.70;29.20;;;;;;2256218;61;20653;-62
2023/10/25 04:18:27;0.00;0.00;0.62;0.00;0.00;0.62;1.80;1.20;;;23.70;29.20;;;;;;2255969;61;20366;-62
2023/10/25 04:21:13;0.00;0.00;0.62;0.00;0.00;0.62;2.50;1.67;;;23.70;29.20;;;;;;2256641;61;21098;-62
2023/10/25 04:23:57;0.00;0.00;0.62;0.00;0.00;0.62;2.40;1.93;;;23.70;29.20;;;;;;2256221;61;20382;-62
2023/10/25 04:26:43;0.00;0.00;0.62;0.00;0.00;0.62;1.80;1.17;;;23.70;29.20;;;;;;2256038;61;20417;-64
2023/10/25 04:29:28;0.00;0.00;0.62;0.00;0.00;0.62;2.53;1.60;;;23.70;29.20;;;;;;2255618;61;20800;-62
2023/10/25 04:32:13;0.00;0.00;0.62;0.00;0.00;0.62;2.10;1.70;;;23.70;29.20;;;;;;2256307;61;20373;-63
2023/10/25 04:34:57;0.00;0.00;0.62;0.00;0.00;0.62;1.80;1.20;;;23.70;29.20;;;;;;2256286;61;20386;-62
2023/10/25 04:37:42;0.00;0.00;0.62;0.00;0.00;0.62;3.10;1.60;;;23.70;29.20;;;;;;2256503;61;20365;-62
2023/10/25 04:40:26;0.00;0.00;0.62;0.00;0.00;0.62;2.77;1.20;;;23.70;29.20;;;;;;2256196;61;20373;-62
2023/10/25 04:43:12;0.00;0.00;0.62;0.00;0.00;0.62;2.20;1.60;;;23.70;29.20;;;;;;2256431;61;20933;-62
2023/10/25 04:45:57;0.00;0.00;0.62;0.00;0.00;0.62;2.23;1.37;;;23.70;29.20;;;;;;2256353;61;20369;-62
2023/10/25 04:48:42;0.00;0.00;0.62;0.00;0.00;0.62;1.90;1.20;;;23.70;29.20;;;;;;2255898;61;20365;-65
2023/10/25 04:51:26;0.00;0.00;0.62;0.00;0.00;0.62;1.80;1.20;;;23.70;29.20;;;;;;2255943;61;20370;-62
2023/10/25 04:54:11;0.00;0.00;0.62;0.00;0.00;0.62;1.80;1.37;;;23.70;29.20;;;;;;2256146;61;20391;-63
2023/10/25 04:56:57;0.00;0.00;0.62;0.00;0.00;0.62;1.83;1.27;;;23.70;29.20;;;;;;2256053;61;20906;-62
2023/10/25 04:59:43;0.00;0.00;0.62;0.00;0.00;0.62;1.80;1.30;;;23.70;29.20;;;;;;2256131;61;20377;-62
2023/10/25 05:02:27;0.00;0.00;0.62;0.00;0.00;0.62;2.33;1.70;;;23.70;29.20;;;;;;2256022;61;20408;-62
2023/10/25 05:05:12;0.00;0.00;0.62;0.00;0.00;0.62;1.80;1.30;;;23.70;29.20;;;;;;2256484;61;20852;-63
2023/10/25 05:07:57;0.00;0.00;0.62;0.00;0.00;0.62;1.63;1.10;;;23.70;29.70;;;;;;2256032;61;20811;-62
2023/10/25 05:10:47;0.00;0.00;0.62;0.00;0.00;0.62;1.83;1.20;;;23.70;29.20;;;;;;2256166;61;20369;-61
2023/10/25 05:13:32;0.00;0.00;0.62;0.00;0.00;0.62;2.20;1.40;;;23.70;29.20;;;;;;2255819;61;20381;-62
2023/10/25 05:16:19;0.00;0.00;0.62;0.00;0.00;0.62;2.27;1.30;;;23.70;29.20;;;;;;2256262;61;20456;-61
2023/10/25 05:19:04;0.00;0.00;0.62;0.00;0.00;0.62;2.10;1.40;;;23.70;29.20;;;;;;2255748;61;20988;-62
2023/10/25 05:21:51;0.00;0.00;0.62;0.00;0.00;0.62;2.50;1.67;;;23.70;29.20;;;;;;2257170;61;20388;-64
2023/10/25 05:24:36;0.00;0.00;0.62;0.00;0.00;0.62;2.07;1.50;;;23.60;29.10;;;;;;2256644;61;20432;-62
2023/10/25 05:27:22;0.00;0.00;0.62;0.00;0.00;0.62;1.80;1.23;;;23.60;29.10;;;;;;2257077;61;20401;-62
2023/10/25 05:30:09;0.00;0.00;0.62;0.00;0.00;0.62;2.73;1.40;;;23.60;29.10;;;;;;2256734;61;20357;-62
2023/10/25 05:33:01;0.00;0.00;0.62;0.00;0.00;0.62;1.70;1.10;;;23.60;29.20;;;;;;2256960;61;20436;-62
2023/10/25 05:35:46;0.00;0.00;0.62;0.00;0.00;0.62;1.77;1.20;;;23.60;29.20;;;;;;2256837;61;20433;-62
2023/10/25 05:38:31;0.00;0.00;0.62;0.00;0.00;0.62;1.77;1.20;;;23.60;29.10;;;;;;2256533;61;20725;-62
2023/10/25 05:41:20;0.00;0.00;0.62;0.00;0.00;0.62;1.93;1.27;;;23.60;29.10;;;;;;2257038;61;20813;-63
2023/10/25 05:44:09;0.00;0.00;0.62;0.00;0.00;0.62;2.23;1.40;;;23.70;29.20;;;;;;2259338;61;20466;-63
2023/10/25 05:46:54;0.00;0.00;0.62;0.00;0.00;0.62;1.73;1.20;;;23.60;29.10;;;;;;2256972;61;20385;-62
2023/10/25 05:49:41;0.00;0.00;0.62;0.00;0.00;0.62;1.97;1.30;;;23.60;29.20;;;;;;2256679;61;20458;-62
2023/10/25 05:52:26;0.00;0.00;0.62;0.00;0.00;0.62;2.30;1.50;;;23.60;29.10;;;;;;2256895;61;20665;-62
2023/10/25 05:55:14;0.00;0.00;0.62;0.00;0.00;0.62;1.60;1.20;;;23.60;29.10;;;;;;2256889;61;20460;-62
2023/10/25 05:57:59;0.00;0.00;0.62;0.00;0.00;0.62;1.77;1.40;;;23.60;29.10;;;;;;2256375;61;20374;-62
2023/10/25 06:00:49;0.00;0.00;0.62;0.00;0.00;0.62;2.20;1.50;;;23.60;29.10;;;;;;2256755;61;20929;-63
2023/10/25 06:03:34;0.00;0.00;0.62;0.00;0.00;0.62;2.10;1.40;;;23.60;29.10;;;;;;2256875;61;20413;-62
2023/10/25 06:06:22;0.00;0.00;0.62;0.00;0.00;0.62;2.23;1.50;;;23.60;29.10;;;;;;2257016;61;20815;-62
2023/10/25 06:09:08;0.00;0.00;0.62;0.00;0.00;0.62;2.20;1.47;;;23.60;29.10;;;;;;2256324;61;20918;-62
2023/10/25 06:11:54;0.00;0.00;0.62;0.00;0.00;0.62;3.83;1.90;;;23.60;29.20;;;;;;2256800;61;20377;-63
2023/10/25 06:14:39;0.00;0.00;0.62;0.00;0.00;0.62;2.93;1.70;;;23.60;29.10;;;;;;2256825;61;20358;-62
2023/10/25 06:17:23;0.00;0.00;0.62;0.00;0.00;0.62;2.60;1.90;;;23.60;29.20;;;;;;2256831;61;20393;-63
2023/10/25 06:20:10;0.00;0.00;0.62;0.00;0.00;0.62;2.67;1.77;;;23.60;29.10;;;;;;2256581;61;20365;-62
2023/10/25 06:22:57;0.00;0.00;0.62;0.00;0.00;0.62;2.93;2.30;;;23.60;29.10;;;;;;2256690;61;20436;-62
2023/10/25 06:25:41;0.00;0.00;0.62;0.00;0.00;0.62;2.43;1.87;;;23.60;29.10;;;;;;2256751;61;20374;-62
2023/10/25 06:28:26;0.00;0.00;0.62;0.00;0.00;0.62;3.00;2.20;;;23.60;29.10;;;;;;2256468;61;20378;-62
2023/10/25 06:31:11;0.00;0.00;0.62;0.00;0.00;0.62;3.57;2.40;;;23.60;29.10;;;;;;2256345;61;20421;-62
2023/10/25 06:33:55;0.00;0.00;0.62;0.00;0.00;0.62;3.43;2.50;;;23.60;29.10;;;;;;2256289;61;20456;-64
2023/10/25 06:36:41;0.00;0.00;0.62;0.00;0.00;0.62;3.40;2.30;;;23.60;29.10;;;;;;2256623;61;20386;-62
2023/10/25 06:39:28;0.00;0.00;0.62;0.00;0.00;0.62;3.10;2.60;;;23.60;29.10;;;;;;2255962;61;20373;-62
2023/10/25 06:42:14;0.00;0.00;0.62;0.00;0.00;0.62;3.70;2.67;;;23.60;29.10;;;;;;2256848;61;20446;-62
2023/10/25 06:45:00;0.00;0.00;0.62;0.00;0.00;0.62;3.97;2.90;;;23.60;29.20;;;;;;2256502;61;20366;-62
2023/10/25 06:47:45;0.00;0.00;0.62;0.00;0.00;0.62;3.67;2.80;;;23.60;29.10;;;;;;2256632;61;20377;-62
2023/10/25 06:50:31;0.00;0.00;0.62;0.00;0.00;0.62;4.13;3.20;;;23.60;29.10;;;;;;2256445;61;20454;-62
2023/10/25 06:53:17;0.00;0.00;0.62;0.00;0.00;0.62;3.47;2.83;;;23.50;29.10;;;;;;2256631;61;20494;-62
2023/10/25 06:56:04;0.00;0.00;0.62;0.00;0.00;0.62;3.80;2.97;;;23.50;29.00;;;;;;2256404;61;20406;-62
2023/10/25 06:58:51;0.00;0.00;0.62;0.00;0.00;0.62;3.80;2.93;;;23.50;29.00;;;;;;2256178;61;20393;-63
2023/10/25 07:01:45;0.00;0.00;0.62;0.00;0.00;0.62;5.50;3.40;;;23.60;29.10;;;;;;2256650;61;20361;-62
2023/10/25 07:04:32;0.00;0.00;0.62;0.00;0.00;0.62;4.33;3.27;;;23.50;29.00;;;;;;2256124;61;20387;-62
2023/10/25 07:07:22;0.00;0.00;0.62;0.00;0.00;0.62;4.33;3.60;;;23.50;29.10;;;;;;2256542;61;20454;-62
2023/10/25 07:10:09;0.00;0.00;0.62;0.00;0.00;0.62;3.57;3.10;;;23.50;29.00;;;;;;2256331;61;20401;-63
2023/10/25 07:12:55;0.00;0.00;0.62;0.00;0.00;0.62;3.50;3.13;;;23.50;29.10;;;;;;2256060;61;20611;-62
2023/10/25 07:15:40;0.00;0.00;0.62;0.00;0.00;0.62;3.97;3.57;;;23.50;29.00;;;;;;2256334;61;20508;-62
2023/10/25 07:18:25;0.00;0.00;0.62;0.00;0.00;0.62;4.17;3.10;;;23.50;29.00;;;;;;2255936;61;20365;-62
2023/10/25 07:21:10;0.00;0.00;0.62;0.00;0.00;0.62;3.53;3.23;;;23.50;29.00;;;;;;2256501;61;20369;-62
2023/10/25 07:23:54;0.00;0.00;0.62;0.00;0.00;0.62;4.33;3.77;;;23.50;29.00;;;;;;2256557;61;20457;-62
2023/10/25 07:26:39;0.00;0.00;0.62;0.00;0.00;0.62;3.47;2.80;;;23.50;29.00;;;;;;2256697;61;20413;-62
2023/10/25 07:29:25;0.00;0.00;0.62;0.00;0.00;0.62;3.87;2.87;;;23.50;29.00;;;;;;2256001;61;20370;-64
2023/10/25 07:32:09;0.00;0.00;0.62;0.00;0.00;0.62;4.07;3.30;;;23.50;29.00;;;;;;2256455;61;20374;-63
2023/10/25 07:34:54;0.00;0.00;0.62;0.00;0.00;0.62;4.50;3.20;;;23.50;29.00;;;;;;2256474;61;20397;-65
2023/10/25 07:37:38;0.00;0.00;0.62;0.00;0.00;0.62;3.63;3.00;;;23.50;29.00;;;;;;2256349;61;20365;-64
2023/10/25 07:40:23;0.00;0.00;0.62;0.00;0.00;0.62;4.93;3.80;;;23.50;29.00;;;;;;2256653;61;20762;-62
2023/10/25 07:43:09;0.00;0.00;0.62;0.00;0.00;0.62;3.87;2.97;;;23.50;29.00;;;;;;2256585;61;20452;-63
2023/10/25 07:45:55;0.00;0.00;0.62;0.00;0.00;0.62;4.23;3.20;;;23.50;29.00;;;;;;2256571;61;20420;-62
2023/10/25 07:48:40;0.00;0.00;0.62;0.00;0.00;0.62;4.70;3.03;;;23.50;29.00;;;;;;2255627;61;20366;-62
2023/10/25 07:51:24;0.00;0.00;0.62;0.00;0.00;0.62;3.40;2.73;;;23.50;29.00;;;;;;2256499;61;20365;-62
2023/10/25 07:54:09;0.00;0.00;0.62;0.00;0.00;0.62;4.43;3.00;;;23.50;29.00;;;;;;2256529;61;20378;-62
2023/10/25 07:56:54;0.00;0.00;0.62;0.00;0.00;0.62;3.40;3.10;;;23.50;29.00;;;;;;2256095;61;20961;-62
2023/10/25 07:59:38;0.00;0.00;0.62;0.00;0.00;0.62;4.20;2.97;;;23.50;29.00;;;;;;2256023;61;20809;-63
2023/10/25 08:02:24;0.00;0.00;0.62;0.00;0.00;0.62;4.00;3.17;;;23.50;29.00;;;;;;2256551;61;20416;-62
2023/10/25 08:05:08;0.00;0.00;0.62;0.00;0.00;0.62;3.93;2.90;;;23.50;29.10;;;;;;2256451;61;20369;-62
2023/10/25 08:07:53;0.00;0.00;0.62;0.00;0.00;0.62;3.80;2.73;;;23.50;29.00;;;;;;2256045;61;20416;-62
2023/10/25 08:10:38;0.00;0.00;0.62;0.00;0.00;0.62;4.20;3.23;;;23.50;29.00;;;;;;2256628;61;20929;-62
2023/10/25 08:13:22;0.00;0.00;0.62;0.00;0.00;0.62;3.70;2.57;;;23.50;29.10;;;;;;2256258;61;20455;-63
2023/10/25 08:16:08;0.00;0.00;0.62;0.00;0.00;0.62;3.97;3.20;;;23.50;29.10;;;;;;2251624;61;20400;-65
2023/10/25 08:18:54;0.00;0.00;0.62;0.00;0.00;0.62;4.90;3.17;;;23.50;29.60;;;;;;2255903;61;20362;-62
2023/10/25 08:21:40;0.00;0.00;0.62;0.00;0.00;0.62;4.40;3.77;;;23.50;29.10;;;;;;2256210;61;20385;-62
2023/10/25 08:24:24;0.00;0.00;0.62;0.00;0.00;0.62;3.33;2.93;;;23.50;29.20;;;;;;2256608;61;20910;-62
2023/10/25 08:27:09;0.00;0.00;0.62;0.00;0.00;0.62;3.43;2.73;;;23.50;29.20;;;;;;2256479;61;20960;-62
2023/10/25 08:29:53;0.00;0.00;0.62;0.00;0.00;0.62;3.77;2.90;;;23.50;29.20;;;;;;2255896;61;20369;-62
2023/10/25 08:32:38;0.00;0.00;0.62;0.00;0.00;0.62;4.13;3.20;;;23.60;29.30;;;;;;2256547;61;20401;-63
2023/10/25 08:35:24;0.00;0.00;0.62;0.00;0.00;0.62;2.97;2.63;;;23.60;29.30;;;;;;2256716;61;20429;-62
2023/10/25 08:38:09;0.00;0.00;0.62;0.00;0.00;0.62;3.47;2.80;;;23.60;29.30;;;;;;2256108;61;20365;-62
2023/10/25 08:41:01;0.00;0.00;0.62;0.00;0.00;0.62;3.40;2.53;;;23.60;29.30;;;;;;2256558;61;20789;-61
2023/10/25 08:43:46;0.00;0.00;0.62;0.00;0.00;0.62;3.30;2.57;;;23.60;29.30;;;;;;2255818;61;20397;-61
2023/10/25 08:46:33;0.00;0.00;0.62;0.00;0.00;0.62;3.50;2.63;;;23.60;29.30;;;;;;2256512;61;20408;-62
2023/10/25 08:49:18;0.00;0.00;0.62;0.00;0.00;0.62;3.30;2.40;;;23.60;29.40;;;;;;2256143;61;20362;-63
2023/10/25 08:52:04;0.00;0.00;0.62;0.00;0.00;0.62;3.90;2.70;;;23.60;29.40;;;;;;2256157;61;20450;-62
2023/10/25 08:54:49;0.00;0.00;0.62;0.00;0.00;0.62;3.10;2.50;;;23.60;29.40;;;;;;2256362;61;20365;-62
2023/10/25 08:57:36;0.00;0.00;0.62;0.00;0.00;0.62;2.77;2.43;;;23.60;29.40;;;;;;2257138;61;20397;-62
2023/10/25 09:00:20;0.00;0.00;0.62;0.00;0.00;0.62;3.37;2.67;;;23.60;29.40;;;;;;2256812;61;21003;-62
2023/10/25 09:03:05;0.00;0.00;0.62;0.00;0.00;0.62;4.30;2.90;;;23.60;29.40;;;;;;2257085;61;20465;-62
2023/10/25 09:05:50;0.00;0.00;0.62;0.00;0.00;0.62;3.47;2.87;;;23.60;29.40;;;;;;2256859;61;20438;-62
2023/10/25 09:08:36;0.00;0.00;0.62;0.00;0.00;0.62;3.50;2.70;;;23.70;29.50;;;;;;2256873;61;20365;-62
2023/10/25 09:11:20;0.00;0.00;0.62;0.00;0.00;0.62;3.23;2.20;;;23.70;29.50;;;;;;2257171;61;20393;-62
2023/10/25 09:14:05;0.00;0.00;0.62;0.00;0.00;0.62;3.43;2.50;;;23.70;29.50;;;;;;2256969;61;20935;-61
2023/10/25 09:16:50;0.00;0.00;0.62;0.00;0.00;0.62;3.40;2.50;;;23.70;29.50;;;;;;2257154;61;20844;-61
2023/10/25 09:19:34;0.00;0.00;0.62;0.00;0.00;0.62;3.10;2.60;;;23.70;29.50;;;;;;2256677;61;20437;-62
2023/10/25 09:22:21;0.00;0.00;0.62;0.00;0.00;0.62;3.00;2.17;;;23.70;29.50;;;;;;2256639;61;20389;-62
2023/10/25 09:25:09;0.00;0.00;0.62;0.00;0.00;0.62;2.80;2.10;;;23.70;29.50;;;;;;2257017;61;20362;-62
2023/10/25 09:27:54;0.00;0.00;0.62;0.00;0.00;0.62;3.70;2.60;;;23.70;29.50;;;;;;2256114;61;20405;-61
2023/10/25 09:30:38;0.00;0.00;0.62;0.00;0.00;0.62;3.03;2.20;;;23.70;29.50;;;;;;2256984;61;20361;-63
2023/10/25 09:33:23;0.00;0.00;0.62;0.00;0.00;0.62;2.87;2.10;;;23.70;29.50;;;;;;2256685;61;20918;-62
2023/10/25 09:36:08;0.00;0.00;0.62;0.00;0.00;0.62;3.10;2.33;;;23.80;29.60;;;;;;2256903;61;20381;-62
2023/10/25 09:38:54;0.00;0.00;0.62;0.00;0.00;0.62;3.07;2.40;;;23.80;29.60;;;;;;2256702;61;20417;-62
2023/10/25 09:41:40;0.00;0.00;0.62;0.00;0.00;0.62;2.53;1.90;;;23.80;29.60;;;;;;2257037;61;20412;-62
2023/10/25 09:44:28;0.00;0.00;0.62;0.00;0.00;0.62;2.90;2.40;;;23.80;29.60;;;;;;2256924;61;21052;-62
2023/10/25 09:47:15;0.00;0.00;0.62;0.00;0.00;0.62;3.00;2.27;;;23.80;29.60;;;;;;2257114;61;20829;-61
2023/10/25 09:50:09;0.00;0.00;0.62;0.00;0.00;0.62;2.87;2.13;;;23.80;29.60;;;;;;2256595;61;20370;-63
2023/10/25 09:53:00;0.00;0.00;0.62;0.00;0.00;0.62;2.90;2.10;;;23.80;29.60;;;;;;2256963;61;20385;-62
2023/10/25 09:55:54;0.00;0.00;0.62;0.00;0.00;0.62;3.33;2.87;;;23.90;29.70;;;;;;2256903;61;20393;-62
2023/10/25 09:58:42;0.00;0.00;0.62;0.00;0.00;0.62;2.50;1.90;;;23.90;29.60;;;;;;2258707;61;20378;-63
2023/10/25 10:01:27;0.00;0.00;0.62;0.00;0.00;0.62;3.03;2.00;;;23.90;29.60;;;;;;2256941;61;20377;-64
2023/10/25 10:04:19;0.00;0.00;0.62;0.00;0.00;0.62;2.13;1.70;;;23.90;29.60;;;;;;2256868;61;20385;-62
2023/10/25 10:07:12;0.00;0.00;0.62;0.00;0.00;0.62;2.97;2.37;;;23.90;29.60;;;;;;2256451;61;20357;-60
2023/10/25 10:10:08;0.00;0.00;0.62;0.00;0.00;0.62;2.63;1.97;;;23.90;29.60;;;;;;2256168;61;20442;-62
2023/10/25 10:12:52;0.00;0.00;0.62;0.00;0.00;0.62;2.80;2.10;;;23.90;29.60;;;;;;2256623;61;20445;-62
2023/10/25 10:16:01;0.00;0.00;0.62;0.00;0.00;0.62;2.80;2.23;;;24.00;29.70;;;;;;2256793;61;20400;-63
2023/10/25 10:18:47;0.00;0.00;0.62;0.00;0.00;0.62;3.70;2.20;;;24.00;29.70;;;;;;2256484;61;20374;-62
2023/10/25 10:22:05;0.00;0.00;0.62;0.00;0.00;0.62;3.23;2.40;;;24.00;29.70;;;;;;2256716;61;20416;-62
2023/10/25 10:25:00;0.00;0.00;0.62;0.00;0.00;0.62;3.07;2.23;;;24.00;29.70;;;;;;2256927;61;20449;-63
2023/10/25 10:28:03;0.00;0.00;0.62;0.00;0.00;0.62;3.00;2.23;;;24.00;29.70;;;;;;2256705;61;20816;-62
2023/10/25 10:30:47;0.00;0.00;0.62;0.00;0.00;0.62;2.67;2.17;;;24.00;29.70;;;;;;2256666;61;20516;-62
2023/10/25 10:33:45;0.00;0.00;0.62;0.00;0.00;0.62;2.33;2.10;;;24.10;29.80;;;;;;2256851;61;20378;-62
2023/10/25 10:36:30;0.00;0.00;0.62;0.00;0.00;0.62;3.93;2.57;;;24.10;29.80;;;;;;2256443;61;20835;-62
2023/10/25 10:39:16;0.00;0.00;0.62;0.00;0.00;0.62;2.93;1.80;;;24.10;29.70;;;;;;2256373;61;20408;-62
2023/10/25 10:42:02;0.00;0.00;0.62;0.00;0.00;0.62;2.20;1.60;;;24.10;29.70;;;;;;2256564;61;20366;-62
2023/10/25 10:44:47;0.00;0.00;0.62;0.00;0.00;0.62;2.70;2.27;;;24.10;29.70;;;;;;2256208;61;20397;-62
2023/10/25 10:47:37;0.00;0.00;0.62;0.00;0.00;0.62;2.20;1.77;;;24.10;29.70;;;;;;2256589;61;20437;-61
2023/10/25 10:50:25;0.00;0.00;0.62;0.00;0.00;0.62;3.27;2.30;;;24.10;29.70;;;;;;2256594;61;20369;-63
2023/10/25 10:53:10;0.00;0.00;0.62;0.00;0.00;0.62;3.10;2.50;;;24.20;29.80;;;;;;2256612;61;20425;-62
2023/10/25 10:55:54;0.00;0.00;0.62;0.00;0.00;0.62;2.50;2.03;;;24.20;29.70;;;;;;2256699;61;20953;-62
2023/10/25 10:58:39;0.00;0.00;0.62;0.00;0.00;0.62;2.87;2.47;;;24.20;29.70;;;;;;2256159;61;20898;-61